Upstream stations:
Downstream station:
SHEF ID: BRIO2 Canadian River at Bridgeport, OK
STATION TYPE:
Regulating: Stage = 15.00, Flow = 8579
STAGE RIV-FLOW BAT-LOAD
ft cfs volt
Ccp-Rev Ccp-Rev Ccp-Rev
(US/Central)
03/21 00:00 11.23 821 12.49
03/21 01:00 11.23 821 12.49
03/21 02:00 11.22 815 12.41
03/21 03:00 11.21 809 12.41
03/21 04:00 11.19 797 12.41
03/21 05:00 11.21 809 12.41
03/21 06:00 11.18 791 12.41
03/21 07:00 11.18 791 12.41
03/21 08:00 11.19 797 12.41
03/21 09:00 11.19 797 13.21
03/21 10:00 11.19 797 13.05
03/21 11:00 11.17 785 12.97
03/21 12:00 11.22 815 12.89
03/21 13:00 11.21 809 12.89
03/21 14:00 11.24 827 12.81
03/21 15:00 11.21 809 12.81
03/21 16:00 11.24 827 12.81
03/21 17:00 11.25 834 12.73
03/21 18:00 11.21 809 12.73
03/21 19:00 11.25 834 12.73
03/21 20:00 11.24 827 12.65
03/21 21:00 11.21 809 12.65
03/21 22:00 11.22 815 12.57
03/21 23:00 ---- ---- ----